createdAt,value
2019-04-12T00:01:47.540Z,2.10
2019-04-12T00:04:16.903Z,2.93
2019-04-12T00:06:46.252Z,2.77
2019-04-12T00:09:15.663Z,2.63
2019-04-12T00:11:45.002Z,2.40
2019-04-12T00:14:14.402Z,2.47
2019-04-12T00:16:43.975Z,3.00
2019-04-12T00:19:14.008Z,1.90
2019-04-12T00:21:45.698Z,2.37
2019-04-12T00:24:17.147Z,3.83
2019-04-12T00:26:48.664Z,2.70
2019-04-12T00:29:17.958Z,4.57
2019-04-12T00:31:47.326Z,2.33
2019-04-12T00:34:16.674Z,2.43
2019-04-12T00:36:46.037Z,2.57
2019-04-12T00:39:15.231Z,2.00
2019-04-12T00:41:44.430Z,2.10
2019-04-12T00:44:13.630Z,1.80
2019-04-12T00:46:42.887Z,2.00
2019-04-12T00:49:12.022Z,2.20
2019-04-12T00:51:42.665Z,2.10
2019-04-12T00:54:13.775Z,2.17
2019-04-12T00:56:46.203Z,2.63
2019-04-12T00:59:17.394Z,2.70
2019-04-12T01:02:00.640Z,1.90
2019-04-12T01:04:44.108Z,1.73
2019-04-12T01:07:13.265Z,2.40
2019-04-12T01:09:45.511Z,1.97
2019-04-12T01:12:14.752Z,2.63
2019-04-12T01:14:43.814Z,1.90
2019-04-12T01:17:13.005Z,2.17
2019-04-12T01:19:42.318Z,2.50
2019-04-12T01:22:11.861Z,1.67
2019-04-12T01:24:41.955Z,2.80
2019-04-12T01:27:11.343Z,2.90
2019-04-12T01:29:40.358Z,1.80
2019-04-12T01:32:09.701Z,2.43
2019-04-12T01:34:38.839Z,2.00
2019-04-12T01:37:08.013Z,1.90
2019-04-12T01:39:37.012Z,2.40
2019-04-12T01:42:06.577Z,1.67
2019-04-12T01:44:35.721Z,1.90
2019-04-12T01:47:05.117Z,2.17
2019-04-12T01:49:34.545Z,1.87
2019-04-12T01:52:04.225Z,1.87
2019-04-12T01:54:33.327Z,2.73
2019-04-12T01:57:02.726Z,1.77
2019-04-12T01:59:32.105Z,2.47
2019-04-12T02:02:01.626Z,2.40
2019-04-12T02:04:30.724Z,2.83
2019-04-12T02:07:00.026Z,2.07
2019-04-12T02:09:29.417Z,1.90
2019-04-12T02:11:58.511Z,2.07
2019-04-12T02:14:27.818Z,1.90
2019-04-12T02:16:57.084Z,4.13
2019-04-12T02:19:26.107Z,2.30
2019-04-12T02:21:55.303Z,1.77
2019-04-12T02:24:24.728Z,2.97
2019-04-12T02:26:53.781Z,1.97
2019-04-12T02:29:23.325Z,2.00
2019-04-12T02:32:01.011Z,1.70
2019-04-12T02:34:30.402Z,2.07
2019-04-12T02:36:59.521Z,2.10
2019-04-12T02:39:28.811Z,3.10
2019-04-12T02:41:58.182Z,2.10
2019-04-12T02:44:27.409Z,2.13
2019-04-12T02:47:19.851Z,1.80
2019-04-12T02:50:00.141Z,2.67
2019-04-12T02:52:48.560Z,2.00
2019-04-12T02:55:39.767Z,2.87
2019-04-12T02:58:14.588Z,1.50
2019-04-12T03:00:50.554Z,2.10
2019-04-12T03:03:20.263Z,2.17
2019-04-12T03:05:49.480Z,2.90
2019-04-12T03:08:18.747Z,3.87
2019-04-12T03:10:49.237Z,2.20
2019-04-12T03:13:18.711Z,2.70
2019-04-12T03:15:48.051Z,2.47
2019-04-12T03:18:17.832Z,2.23
2019-04-12T03:20:47.499Z,2.53
2019-04-12T03:23:16.951Z,2.60
2019-04-12T03:25:53.845Z,5.33
2019-04-12T03:28:17.336Z,3.00
2019-04-12T03:30:46.430Z,3.60
2019-04-12T03:33:15.935Z,3.37
2019-04-12T03:35:44.936Z,2.03
2019-04-12T03:38:14.229Z,3.53
2019-04-12T03:40:43.423Z,3.33
2019-04-12T03:43:12.745Z,4.10
2019-04-12T03:45:42.751Z,4.00
2019-04-12T03:48:12.026Z,4.40
2019-04-12T03:50:41.552Z,4.87
2019-04-12T03:53:10.837Z,4.00
2019-04-12T03:55:40.057Z,5.13
2019-04-12T03:58:09.213Z,4.07
2019-04-12T04:00:41.546Z,4.60
2019-04-12T04:03:11.115Z,7.13
2019-04-12T04:05:40.287Z,4.47
2019-04-12T04:08:09.384Z,5.83
2019-04-12T04:10:38.748Z,7.33
2019-04-12T04:13:07.796Z,6.03
2019-04-12T04:15:37.184Z,7.57
2019-04-12T04:18:15.099Z,5.10
2019-04-12T04:21:06.201Z,7.00
2019-04-12T04:23:43.892Z,9.37
2019-04-12T04:26:31.838Z,8.87
2019-04-12T04:29:10.430Z,7.03
2019-04-12T04:32:01.578Z,7.80
2019-04-12T04:34:31.109Z,9.83
2019-04-12T04:37:00.883Z,6.87
2019-04-12T04:39:30.295Z,8.00
2019-04-12T04:41:59.374Z,5.97
2019-04-12T04:44:28.808Z,6.97
2019-04-12T04:46:58.573Z,7.43
2019-04-12T04:49:28.111Z,7.17
2019-04-12T04:51:58.896Z,9.57
2019-04-12T04:54:28.294Z,6.93
2019-04-12T04:56:57.556Z,5.43
2019-04-12T04:59:26.937Z,7.53
2019-04-12T05:01:56.110Z,6.37
2019-04-12T05:04:25.619Z,7.37
2019-04-12T05:06:54.711Z,7.73
2019-04-12T05:09:23.810Z,7.30
2019-04-12T05:11:53.213Z,6.70
2019-04-12T05:14:22.688Z,6.30
2019-04-12T05:16:51.800Z,7.03
2019-04-12T05:19:21.100Z,6.17
2019-04-12T05:21:50.505Z,6.90
2019-04-12T05:24:19.702Z,5.00
2019-04-12T05:26:48.723Z,5.60
2019-04-12T05:29:17.688Z,7.87
2019-04-12T05:31:47.200Z,6.67
2019-04-12T05:34:16.730Z,5.83
2019-04-12T05:36:45.792Z,6.57
2019-04-12T05:39:14.994Z,5.70
2019-04-12T05:41:44.302Z,5.97
2019-04-12T05:44:13.692Z,5.43
2019-04-12T05:47:17.056Z,14.10
2019-04-12T05:50:08.256Z,11.40
2019-04-12T05:52:37.487Z,7.40
2019-04-12T05:55:07.501Z,7.80
2019-04-12T05:57:36.699Z,3.93
2019-04-12T06:00:06.853Z,5.93
2019-04-12T06:02:43.515Z,4.03
2019-04-12T06:05:13.422Z,7.10
2019-04-12T06:07:42.713Z,4.47
2019-04-12T06:10:12.156Z,5.23
2019-04-12T06:12:41.592Z,4.60
2019-04-12T06:15:11.103Z,4.50
2019-04-12T06:17:40.812Z,4.93
2019-04-12T06:20:28.554Z,4.03
2019-04-12T06:22:58.272Z,4.67
2019-04-12T06:25:49.683Z,3.43
2019-04-12T06:28:18.773Z,3.30
2019-04-12T06:30:50.543Z,4.37
2019-04-12T06:33:20.032Z,3.30
2019-04-12T06:35:49.515Z,3.90
2019-04-12T06:38:18.734Z,3.10
2019-04-12T06:40:47.826Z,2.90
2019-04-12T06:43:17.130Z,3.10
2019-04-12T06:45:46.214Z,2.50
2019-04-12T06:48:17.259Z,2.93
2019-04-12T06:50:48.823Z,4.10
2019-04-12T06:53:18.034Z,3.23
2019-04-12T06:56:00.098Z,3.37
2019-04-12T06:58:31.036Z,3.90
2019-04-12T07:01:17.755Z,1.80
2019-04-12T07:03:57.431Z,3.60
2019-04-12T07:06:27.118Z,2.57
2019-04-12T07:08:56.301Z,2.27
2019-04-12T07:11:25.690Z,2.40
2019-04-12T07:13:54.918Z,5.43
2019-04-12T07:16:23.995Z,4.30
2019-04-12T07:18:53.006Z,2.70
2019-04-12T07:21:21.975Z,3.07
2019-04-12T07:23:51.096Z,1.80
2019-04-12T07:26:20.260Z,2.13
2019-04-12T07:28:49.772Z,2.73
2019-04-12T07:31:21.638Z,2.73
2019-04-12T07:33:50.826Z,2.70
2019-04-12T07:36:19.833Z,3.47
2019-04-12T07:38:49.226Z,2.33
2019-04-12T07:41:18.628Z,4.10
2019-04-12T07:43:47.923Z,2.03
2019-04-12T07:46:17.116Z,1.97
2019-04-12T07:48:46.314Z,5.70
2019-04-12T07:51:33.029Z,5.80
2019-04-12T07:54:26.238Z,3.07
2019-04-12T07:56:55.491Z,3.00
2019-04-12T07:59:26.717Z,3.20
2019-04-12T08:02:13.544Z,3.40
2019-04-12T08:05:00.546Z,3.30
2019-04-12T08:07:51.752Z,3.97
2019-04-12T08:10:20.857Z,7.77
2019-04-12T08:12:49.832Z,3.77
2019-04-12T08:15:19.144Z,3.80
2019-04-12T08:17:48.527Z,3.50
2019-04-12T08:20:17.750Z,4.17
2019-04-12T08:22:47.038Z,2.60
2019-04-12T08:25:16.122Z,4.40
2019-04-12T08:27:45.135Z,4.80
2019-04-12T08:30:14.321Z,4.50
2019-04-12T08:32:43.421Z,6.27
2019-04-12T08:35:14.099Z,4.57
2019-04-12T08:37:43.365Z,11.80
2019-04-12T08:40:12.731Z,3.33
2019-04-12T08:42:41.726Z,4.13
2019-04-12T08:45:11.491Z,8.53
2019-04-12T08:47:40.958Z,5.70
2019-04-12T08:50:10.238Z,3.23
2019-04-12T08:52:39.468Z,3.50
2019-04-12T08:55:08.535Z,13.77
2019-04-12T08:57:37.983Z,3.90
2019-04-12T09:00:07.472Z,3.67
2019-04-12T09:02:36.609Z,5.07
2019-04-12T09:05:05.745Z,5.43
2019-04-12T09:07:34.773Z,6.47
2019-04-12T09:10:06.382Z,5.33
2019-04-12T09:12:35.621Z,3.20
2019-04-12T09:15:05.359Z,2.63
2019-04-12T09:17:34.615Z,4.43
2019-04-12T09:20:22.082Z,3.47
2019-04-12T09:23:13.486Z,3.73
2019-04-12T09:25:45.305Z,2.60
2019-04-12T09:28:24.395Z,3.80
2019-04-12T09:30:45.349Z,5.90
2019-04-12T09:33:14.724Z,3.67
2019-04-12T09:35:46.862Z,5.77
2019-04-12T09:38:17.143Z,5.87
2019-04-12T09:40:46.391Z,5.57
2019-04-12T09:43:15.744Z,4.60
2019-04-12T09:45:44.890Z,4.10
2019-04-12T09:48:14.085Z,5.47
2019-04-12T09:50:43.612Z,3.00
2019-04-12T09:53:13.092Z,5.67
2019-04-12T09:55:42.316Z,4.70
2019-04-12T09:58:11.608Z,4.90
2019-04-12T10:00:41.186Z,5.80
2019-04-12T10:03:10.389Z,5.13
2019-04-12T10:05:39.514Z,4.77
2019-04-12T10:08:08.607Z,6.20
2019-04-12T10:10:37.772Z,7.57
2019-04-12T10:13:07.210Z,6.97
2019-04-12T10:15:36.493Z,8.30
2019-04-12T10:18:05.897Z,4.90
2019-04-12T10:20:35.202Z,8.93
2019-04-12T10:23:04.309Z,7.27
2019-04-12T10:25:33.369Z,6.77
2019-04-12T10:28:02.667Z,7.07
2019-04-12T10:30:31.755Z,6.57
2019-04-12T10:33:00.916Z,6.27
2019-04-12T10:35:30.269Z,5.40
2019-04-12T10:37:59.536Z,7.97
2019-04-12T10:40:28.542Z,5.30
2019-04-12T10:43:00.549Z,7.73
2019-04-12T10:45:36.128Z,4.87
2019-04-12T10:48:11.202Z,4.80
2019-04-12T10:51:02.311Z,5.20
2019-04-12T10:53:41.049Z,4.53
2019-04-12T10:56:13.242Z,4.90
2019-04-12T10:58:42.511Z,4.97
2019-04-12T11:01:11.753Z,4.50
2019-04-12T11:03:40.978Z,4.37
2019-04-12T11:06:10.087Z,3.17
2019-04-12T11:08:39.265Z,5.07
2019-04-12T11:11:08.610Z,3.17
2019-04-12T11:13:37.644Z,3.63
2019-04-12T11:16:06.883Z,4.80
2019-04-12T11:18:36.274Z,5.40
2019-04-12T11:21:05.680Z,3.77
2019-04-12T11:23:34.908Z,3.40
2019-04-12T11:26:04.379Z,3.33
2019-04-12T11:28:33.677Z,3.20
2019-04-12T11:31:02.774Z,3.97
2019-04-12T11:33:32.076Z,3.63
2019-04-12T11:36:01.439Z,4.33
2019-04-12T11:38:30.513Z,3.70
2019-04-12T11:40:59.647Z,3.30
2019-04-12T11:43:28.650Z,3.60
2019-04-12T11:45:57.848Z,3.97
2019-04-12T11:48:27.352Z,3.33
2019-04-12T11:50:56.647Z,3.90
2019-04-12T11:53:26.334Z,3.67
2019-04-12T11:55:55.773Z,5.10
2019-04-12T11:58:46.872Z,4.30
2019-04-12T12:01:16.666Z,3.90
2019-04-12T12:03:58.968Z,5.00
2019-04-12T12:07:02.380Z,4.77
2019-04-12T12:09:40.222Z,4.87
2019-04-12T12:12:28.305Z,6.00
2019-04-12T12:15:07.840Z,4.53
2019-04-12T12:17:38.911Z,4.47
2019-04-12T12:20:08.064Z,3.27
2019-04-12T12:22:37.334Z,4.57
2019-04-12T12:25:06.656Z,4.47
2019-04-12T12:27:35.937Z,3.20
2019-04-12T12:30:05.330Z,4.00
2019-04-12T12:32:34.487Z,3.17
2019-04-12T12:35:03.721Z,3.57
2019-04-12T12:37:32.991Z,2.93
2019-04-12T12:40:02.065Z,3.40
2019-04-12T12:42:31.463Z,3.87
2019-04-12T12:45:00.784Z,2.70
2019-04-12T12:47:30.180Z,2.93
2019-04-12T12:49:59.325Z,4.33
2019-04-12T12:52:28.239Z,8.30
2019-04-12T12:54:57.242Z,4.77
2019-04-12T12:57:26.655Z,4.93
2019-04-12T12:59:55.857Z,4.23
2019-04-12T13:02:25.258Z,5.67
2019-04-12T13:04:54.764Z,3.10
2019-04-12T13:07:23.842Z,4.30
2019-04-12T13:09:52.852Z,3.57
2019-04-12T13:12:21.925Z,4.07
2019-04-12T13:14:51.334Z,4.50
2019-04-12T13:17:20.549Z,4.20
2019-04-12T13:19:49.942Z,3.60
2019-04-12T13:22:18.948Z,4.23
2019-04-12T13:24:48.188Z,3.73
2019-04-12T13:27:17.523Z,4.93
2019-04-12T13:29:47.154Z,3.60
2019-04-12T13:32:47.553Z,4.93
2019-04-12T13:35:48.108Z,4.23
2019-04-12T13:38:39.198Z,4.23
2019-04-12T13:41:08.793Z,3.80
2019-04-12T13:43:37.763Z,3.37
2019-04-12T13:46:06.800Z,3.53
2019-04-12T13:48:36.407Z,8.80
2019-04-12T13:51:05.617Z,2.80
2019-04-12T13:53:34.656Z,3.50
2019-04-12T13:56:03.897Z,3.17
2019-04-12T13:58:33.103Z,4.83
2019-04-12T14:01:02.416Z,5.50
2019-04-12T14:03:31.796Z,4.57
2019-04-12T14:06:00.986Z,3.40
2019-04-12T14:08:30.402Z,3.27
2019-04-12T14:10:59.593Z,2.77
2019-04-12T14:13:28.777Z,3.27
2019-04-12T14:15:57.895Z,3.10
2019-04-12T14:18:27.149Z,2.90
2019-04-12T14:20:56.266Z,2.87
2019-04-12T14:23:25.547Z,2.67
2019-04-12T14:25:54.969Z,3.73
2019-04-12T14:28:29.812Z,3.00
2019-04-12T14:31:05.576Z,3.57
2019-04-12T14:33:52.436Z,3.27
2019-04-12T14:36:31.065Z,2.53
2019-04-12T14:39:00.269Z,3.10
2019-04-12T14:41:29.274Z,3.70
2019-04-12T14:44:26.865Z,3.93
2019-04-12T14:46:59.501Z,2.73
2019-04-12T14:49:28.494Z,3.20
2019-04-12T14:51:57.691Z,2.70
2019-04-12T14:54:26.779Z,3.20
2019-04-12T14:56:56.288Z,2.70
2019-04-12T14:59:25.515Z,3.23
2019-04-12T15:01:54.687Z,3.00
2019-04-12T15:04:24.228Z,2.67
2019-04-12T15:06:53.583Z,3.20
2019-04-12T15:09:22.884Z,2.63
2019-04-12T15:11:51.999Z,4.07
2019-04-12T15:14:21.087Z,3.23
2019-04-12T15:16:50.380Z,3.17
2019-04-12T15:19:19.917Z,3.10
2019-04-12T15:21:49.195Z,3.83
2019-04-12T15:24:18.378Z,4.27
2019-04-12T15:26:47.678Z,4.57
2019-04-12T15:29:16.984Z,4.63
2019-04-12T15:31:46.358Z,4.90
2019-04-12T15:34:15.691Z,3.50
2019-04-12T15:36:44.854Z,4.60
2019-04-12T15:39:14.072Z,4.53
2019-04-12T15:41:43.044Z,4.10
2019-04-12T15:44:12.227Z,5.07
2019-04-12T15:46:41.452Z,4.60
2019-04-12T15:49:10.587Z,4.57
2019-04-12T15:51:39.945Z,4.40
2019-04-12T15:54:09.143Z,4.37
2019-04-12T15:56:38.153Z,3.30
2019-04-12T15:59:07.318Z,4.30
2019-04-12T16:01:39.503Z,4.60
2019-04-12T16:04:09.212Z,4.13
2019-04-12T16:06:38.673Z,5.30
2019-04-12T16:09:13.381Z,5.53
2019-04-12T16:11:54.316Z,5.43
2019-04-12T16:14:23.818Z,4.07
2019-04-12T16:17:10.617Z,5.50
2019-04-12T16:19:39.918Z,5.87
2019-04-12T16:22:09.017Z,5.70
2019-04-12T16:24:37.953Z,6.13
2019-04-12T16:27:06.986Z,4.10
2019-04-12T16:30:10.297Z,6.13
2019-04-12T16:32:58.457Z,4.77
2019-04-12T16:35:42.515Z,6.00
2019-04-12T16:38:14.131Z,7.37
2019-04-12T16:40:43.111Z,6.03
2019-04-12T16:43:12.177Z,6.90
2019-04-12T16:45:41.327Z,6.57
2019-04-12T16:48:10.505Z,3.73
2019-04-12T16:50:39.805Z,9.17
2019-04-12T16:53:08.910Z,29.57
2019-04-12T16:55:38.200Z,6.53
2019-04-12T16:58:07.585Z,6.30
2019-04-12T17:00:38.074Z,7.17
2019-04-12T17:03:07.892Z,9.90
2019-04-12T17:05:37.350Z,6.70
2019-04-12T17:08:06.746Z,6.93
2019-04-12T17:10:36.022Z,6.37
2019-04-12T17:13:05.716Z,5.80
2019-04-12T17:15:35.081Z,6.47
2019-04-12T17:18:04.567Z,6.60
2019-04-12T17:20:33.755Z,13.47
2019-04-12T17:23:02.850Z,11.97
2019-04-12T17:25:31.936Z,7.13
2019-04-12T17:28:00.929Z,7.40
2019-04-12T17:30:30.239Z,5.97
2019-04-12T17:32:59.236Z,6.57
2019-04-12T17:35:28.234Z,6.07
2019-04-12T17:37:57.426Z,7.57
2019-04-12T17:40:26.742Z,5.83
2019-04-12T17:42:56.030Z,5.50
2019-04-12T17:45:25.168Z,6.23
2019-04-12T17:47:54.503Z,5.47
2019-04-12T17:51:03.195Z,5.93
2019-04-12T17:53:57.420Z,6.50
2019-04-12T17:56:27.760Z,5.57
2019-04-12T17:58:57.341Z,5.30
2019-04-12T18:02:01.133Z,4.57
2019-04-12T18:04:25.706Z,4.80
2019-04-12T18:06:55.164Z,7.30
2019-04-12T18:09:24.342Z,6.00
2019-04-12T18:11:53.538Z,5.80
2019-04-12T18:14:22.955Z,6.53
2019-04-12T18:16:52.244Z,14.07
2019-04-12T18:19:21.538Z,11.40
2019-04-12T18:21:51.099Z,8.97
2019-04-12T18:24:20.319Z,5.80
2019-04-12T18:26:49.429Z,7.07
2019-04-12T18:29:18.726Z,5.60
2019-04-12T18:31:48.170Z,6.00
2019-04-12T18:34:17.261Z,6.40
2019-04-12T18:36:46.620Z,6.27
2019-04-12T18:39:16.123Z,6.13
2019-04-12T18:41:45.435Z,6.10
2019-04-12T18:44:16.681Z,6.57
2019-04-12T18:46:45.773Z,6.73
2019-04-12T18:49:14.845Z,6.80
2019-04-12T18:51:43.842Z,6.43
2019-04-12T18:54:12.993Z,6.93
2019-04-12T18:56:41.994Z,7.03
2019-04-12T18:59:11.153Z,7.03
2019-04-12T19:01:40.218Z,7.30
2019-04-12T19:04:09.849Z,7.13
2019-04-12T19:06:39.446Z,7.23
2019-04-12T19:09:09.786Z,9.97
2019-04-12T19:11:39.067Z,7.47
2019-04-12T19:14:08.236Z,7.57
2019-04-12T19:16:37.262Z,6.97
2019-04-12T19:19:06.226Z,7.27
2019-04-12T19:21:35.488Z,7.03
2019-04-12T19:24:04.652Z,7.03
2019-04-12T19:26:33.714Z,5.93
2019-04-12T19:29:02.609Z,7.43
2019-04-12T19:31:48.786Z,7.00
2019-04-12T19:34:37.044Z,7.73
2019-04-12T19:37:20.239Z,11.00
2019-04-12T19:39:55.375Z,8.10
2019-04-12T19:42:24.612Z,6.70
2019-04-12T19:44:53.910Z,6.60
2019-04-12T19:47:23.009Z,6.90
2019-04-12T19:49:52.330Z,7.87
2019-04-12T19:52:22.227Z,8.37
2019-04-12T19:54:51.817Z,7.20
2019-04-12T19:57:21.229Z,6.83
2019-04-12T19:59:51.555Z,7.73
2019-04-12T20:02:21.299Z,7.77
2019-04-12T20:04:50.995Z,7.83
2019-04-12T20:07:20.607Z,8.37
2019-04-12T20:09:50.087Z,7.20
2019-04-12T20:12:19.698Z,8.03
2019-04-12T20:14:49.118Z,7.90
2019-04-12T20:17:18.297Z,8.37
2019-04-12T20:19:47.539Z,7.77
2019-04-12T20:22:17.303Z,8.50
2019-04-12T20:24:46.585Z,7.93
2019-04-12T20:27:15.784Z,9.27
2019-04-12T20:29:45.308Z,10.67
2019-04-12T20:32:14.637Z,7.73
2019-04-12T20:34:44.512Z,7.47
2019-04-12T20:37:13.773Z,8.50
2019-04-12T20:39:43.597Z,9.53
2019-04-12T20:42:12.960Z,11.00
2019-04-12T20:44:42.448Z,7.93
2019-04-12T20:47:11.759Z,8.30
2019-04-12T20:49:42.492Z,8.43
2019-04-12T20:52:11.722Z,8.03
2019-04-12T20:54:41.463Z,12.80
2019-04-12T20:57:10.689Z,8.20
2019-04-12T20:59:40.027Z,7.47
2019-04-12T21:02:09.370Z,8.63
2019-04-12T21:04:38.545Z,10.80
2019-04-12T21:07:07.728Z,7.83
2019-04-12T21:09:39.428Z,7.93
2019-04-12T21:12:09.086Z,8.40
2019-04-12T21:14:40.862Z,9.37
2019-04-12T21:17:10.175Z,8.23
2019-04-12T21:19:39.886Z,9.97
2019-04-12T21:22:09.332Z,9.17
2019-04-12T21:24:38.831Z,8.23
2019-04-12T21:27:08.574Z,8.83
2019-04-12T21:29:40.701Z,9.47
2019-04-12T21:32:11.258Z,9.17
2019-04-12T21:34:41.237Z,11.50
2019-04-12T21:37:10.856Z,9.03
2019-04-12T21:39:40.026Z,10.03
2019-04-12T21:42:09.742Z,10.57
2019-04-12T21:44:39.122Z,9.83
2019-04-12T21:47:08.506Z,10.63
2019-04-12T21:49:40.425Z,10.43
2019-04-12T21:52:13.605Z,11.73
2019-04-12T21:54:44.912Z,11.50
2019-04-12T21:57:14.134Z,10.90
2019-04-12T21:59:44.565Z,11.43
2019-04-12T22:02:14.136Z,14.03
2019-04-12T22:04:43.910Z,11.70
2019-04-12T22:07:14.810Z,12.13
2019-04-12T22:09:44.437Z,12.83
2019-04-12T22:12:13.997Z,11.10
2019-04-12T22:14:43.928Z,12.70
2019-04-12T22:17:13.412Z,11.83
2019-04-12T22:19:46.540Z,12.97
2019-04-12T22:22:16.962Z,12.90
2019-04-12T22:24:46.744Z,11.23
2019-04-12T22:27:15.836Z,12.07
2019-04-12T22:29:45.724Z,11.87
2019-04-12T22:32:17.134Z,11.40
2019-04-12T22:34:46.595Z,13.43
2019-04-12T22:37:16.298Z,12.87
2019-04-12T22:39:45.911Z,13.30
2019-04-12T22:42:15.404Z,12.60
2019-04-12T22:44:44.833Z,12.47
2019-04-12T22:47:14.321Z,12.20
2019-04-12T22:49:43.555Z,11.87
2019-04-12T22:52:13.018Z,13.03
2019-04-12T22:54:42.229Z,14.27
2019-04-12T22:57:11.724Z,12.37
2019-04-12T22:59:41.122Z,12.97
2019-04-12T23:02:10.847Z,12.50
2019-04-12T23:04:40.350Z,13.20
2019-04-12T23:07:09.744Z,11.77
2019-04-12T23:09:39.962Z,12.97
2019-04-12T23:12:09.406Z,13.13
2019-04-12T23:14:38.832Z,13.53
2019-04-12T23:17:08.128Z,12.93
2019-04-12T23:19:37.606Z,12.27
2019-04-12T23:22:07.242Z,12.97
2019-04-12T23:24:36.828Z,11.90
2019-04-12T23:27:06.024Z,13.03
2019-04-12T23:29:35.472Z,12.77
2019-04-12T23:32:05.944Z,14.13
2019-04-12T23:34:43.084Z,12.43
2019-04-12T23:37:12.212Z,12.23
2019-04-12T23:39:41.787Z,12.43
2019-04-12T23:42:10.886Z,13.13
2019-04-12T23:44:40.128Z,13.20
2019-04-12T23:47:09.475Z,13.67
2019-04-12T23:49:38.825Z,13.17
2019-04-12T23:52:08.680Z,13.17
2019-04-12T23:54:37.889Z,14.40
2019-04-12T23:57:07.658Z,14.93
2019-04-12T23:59:37.145Z,13.53
